createdAt,value
2022-09-14T00:01:25.244Z,1.48
2022-09-14T00:03:53.959Z,1.63
2022-09-14T00:06:21.031Z,1.40
2022-09-14T00:08:53.018Z,1.48
2022-09-14T00:11:21.080Z,1.80
2022-09-14T00:13:50.771Z,1.40
2022-09-14T00:16:26.207Z,1.52
2022-09-14T00:18:54.300Z,1.40
2022-09-14T00:21:21.484Z,1.42
2022-09-14T00:23:48.678Z,1.23
2022-09-14T00:26:17.736Z,1.40
2022-09-14T00:28:46.752Z,1.70
2022-09-14T00:31:14.088Z,1.30
2022-09-14T00:33:47.281Z,1.20
2022-09-14T00:36:19.272Z,1.25
2022-09-14T00:38:47.298Z,1.58
2022-09-14T00:41:18.590Z,1.58
2022-09-14T00:44:21.225Z,1.38
2022-09-14T00:46:49.607Z,1.95
2022-09-14T00:49:32.719Z,1.73
2022-09-14T00:52:03.964Z,1.30
2022-09-14T00:54:31.698Z,1.05
2022-09-14T00:56:59.944Z,1.38
2022-09-14T00:59:29.269Z,1.60
2022-09-14T01:01:59.325Z,1.00
2022-09-14T01:04:26.740Z,0.90
2022-09-14T01:07:01.752Z,0.80
2022-09-14T01:09:49.814Z,1.20
2022-09-14T01:12:25.720Z,0.67
2022-09-14T01:15:01.759Z,0.50
2022-09-14T01:17:37.391Z,0.82
2022-09-14T01:20:16.453Z,0.68
2022-09-14T01:22:58.710Z,0.82
2022-09-14T01:25:37.897Z,0.73
2022-09-14T01:28:12.492Z,0.80
2022-09-14T01:30:41.544Z,0.80
2022-09-14T01:33:23.962Z,1.00
2022-09-14T01:35:53.499Z,0.90
2022-09-14T01:38:32.777Z,1.02
2022-09-14T01:41:01.118Z,0.80
2022-09-14T01:43:35.049Z,0.93
2022-09-14T01:46:15.980Z,1.23
2022-09-14T01:48:46.269Z,1.33
2022-09-14T01:51:15.511Z,2.07
2022-09-14T01:53:47.765Z,0.77
2022-09-14T01:56:50.221Z,1.73
2022-09-14T01:59:28.653Z,1.10
2022-09-14T02:02:02.127Z,1.00
2022-09-14T02:04:36.785Z,2.40
2022-09-14T02:07:03.901Z,1.10
2022-09-14T02:09:34.071Z,3.13
2022-09-14T02:12:01.379Z,1.07
2022-09-14T02:14:28.962Z,0.80
2022-09-14T02:16:56.216Z,0.93
2022-09-14T02:19:24.333Z,1.10
2022-09-14T02:21:51.798Z,1.33
2022-09-14T02:24:19.301Z,1.42
2022-09-14T02:26:47.750Z,1.43
2022-09-14T02:29:17.730Z,1.35
2022-09-14T02:31:54.830Z,1.50
2022-09-14T02:34:36.867Z,1.50
2022-09-14T02:37:13.325Z,1.70
2022-09-14T02:39:46.388Z,1.02
2022-09-14T02:42:34.721Z,1.13
2022-09-14T02:45:13.617Z,1.33
2022-09-14T02:47:43.672Z,0.90
2022-09-14T02:50:25.741Z,1.20
2022-09-14T02:52:58.768Z,1.00
2022-09-14T02:55:30.858Z,1.17
2022-09-14T02:58:03.949Z,1.23
2022-09-14T03:00:31.691Z,1.00
2022-09-14T03:02:59.340Z,1.02
2022-09-14T03:05:26.366Z,1.30
2022-09-14T03:07:53.488Z,1.08
2022-09-14T03:10:23.388Z,1.00
2022-09-14T03:12:50.512Z,1.13
2022-09-14T03:15:17.579Z,0.70
2022-09-14T03:17:50.382Z,0.68
2022-09-14T03:20:22.255Z,0.80
2022-09-14T03:22:49.492Z,1.00
2022-09-14T03:25:16.712Z,1.23
2022-09-14T03:27:46.564Z,1.53
2022-09-14T03:30:13.723Z,0.90
2022-09-14T03:32:40.741Z,1.02
2022-09-14T03:35:14.348Z,0.90
2022-09-14T03:37:44.076Z,1.42
2022-09-14T03:40:12.688Z,1.30
2022-09-14T03:42:46.989Z,0.98
2022-09-14T03:45:14.877Z,1.30
2022-09-14T03:47:42.286Z,1.00
2022-09-14T03:50:20.320Z,1.20
2022-09-14T03:52:50.289Z,1.10
2022-09-14T03:55:19.282Z,0.90
2022-09-14T03:57:46.300Z,1.08
2022-09-14T04:00:16.420Z,0.98
2022-09-14T04:03:08.529Z,0.90
2022-09-14T04:05:35.663Z,0.98
2022-09-14T04:08:02.746Z,0.98
2022-09-14T04:10:29.764Z,0.90
2022-09-14T04:13:01.819Z,0.70
2022-09-14T04:15:31.938Z,0.85
2022-09-14T04:17:58.947Z,1.10
2022-09-14T04:20:25.984Z,0.60
2022-09-14T04:22:53.055Z,1.17
2022-09-14T04:25:20.072Z,0.70
2022-09-14T04:28:04.179Z,0.77
2022-09-14T04:30:36.209Z,1.58
2022-09-14T04:33:03.262Z,0.85
2022-09-14T04:35:30.312Z,0.60
2022-09-14T04:38:00.275Z,0.80
2022-09-14T04:40:28.852Z,0.87
2022-09-14T04:42:55.901Z,0.50
2022-09-14T04:45:22.947Z,0.82
2022-09-14T04:47:50.455Z,0.82
2022-09-14T04:50:17.557Z,0.55
2022-09-14T04:52:44.586Z,0.50
2022-09-14T04:55:11.647Z,0.60
2022-09-14T04:57:38.739Z,0.63
2022-09-14T05:00:06.110Z,0.82
2022-09-14T05:02:33.234Z,0.70
2022-09-14T05:05:00.431Z,0.60
2022-09-14T05:07:28.301Z,0.70
2022-09-14T05:09:55.378Z,0.68
2022-09-14T05:12:22.485Z,0.47
2022-09-14T05:14:49.768Z,0.77
2022-09-14T05:17:16.849Z,0.80
2022-09-14T05:19:43.900Z,1.00
2022-09-14T05:22:10.966Z,0.80
2022-09-14T05:24:38.032Z,0.60
2022-09-14T05:27:05.139Z,0.85
2022-09-14T05:29:32.231Z,0.80
2022-09-14T05:31:59.630Z,0.90
2022-09-14T05:34:26.696Z,0.70
2022-09-14T05:36:53.770Z,0.67
2022-09-14T05:39:23.487Z,0.70
2022-09-14T05:41:53.500Z,1.15
2022-09-14T05:44:20.529Z,0.68
2022-09-14T05:46:47.653Z,0.57
2022-09-14T05:49:14.732Z,0.80
2022-09-14T05:51:41.753Z,0.85
2022-09-14T05:54:11.488Z,1.15
2022-09-14T05:56:38.587Z,0.90
2022-09-14T05:59:05.722Z,0.63
2022-09-14T06:01:33.141Z,0.60
2022-09-14T06:04:02.371Z,0.80
2022-09-14T06:06:30.442Z,0.80
2022-09-14T06:08:57.974Z,0.70
2022-09-14T06:11:28.543Z,0.63
2022-09-14T06:13:56.341Z,0.60
2022-09-14T06:16:23.955Z,0.90
2022-09-14T06:18:51.567Z,0.80
2022-09-14T06:21:20.022Z,0.68
2022-09-14T06:23:47.894Z,0.80
2022-09-14T06:26:15.153Z,0.80
2022-09-14T06:28:42.174Z,0.63
2022-09-14T06:31:11.856Z,0.60
2022-09-14T06:33:38.892Z,0.60
2022-09-14T06:36:09.892Z,0.60
2022-09-14T06:38:36.917Z,0.93
2022-09-14T06:41:05.351Z,1.80
2022-09-14T06:43:33.547Z,0.52
2022-09-14T06:46:04.934Z,0.43
2022-09-14T06:48:34.348Z,0.60
2022-09-14T06:51:01.597Z,0.63
2022-09-14T06:53:31.396Z,0.75
2022-09-14T06:56:00.031Z,0.88
2022-09-14T06:58:27.047Z,1.52
2022-09-14T07:00:54.088Z,0.60
2022-09-14T07:03:21.176Z,0.55
2022-09-14T07:05:48.194Z,0.60
2022-09-14T07:08:15.265Z,2.40
2022-09-14T07:10:44.161Z,0.43
2022-09-14T07:13:11.237Z,0.60
2022-09-14T07:15:41.103Z,0.90
2022-09-14T07:18:08.528Z,0.60
2022-09-14T07:20:35.621Z,0.50
2022-09-14T07:23:02.642Z,0.70
2022-09-14T07:25:29.696Z,0.90
2022-09-14T07:27:56.714Z,0.63
2022-09-14T07:30:26.648Z,0.63
2022-09-14T07:32:53.854Z,0.60
2022-09-14T07:35:21.485Z,1.20
2022-09-14T07:37:48.475Z,0.77
2022-09-14T07:40:15.797Z,0.90
2022-09-14T07:42:45.647Z,0.80
2022-09-14T07:45:12.696Z,1.90
2022-09-14T07:47:39.721Z,1.00
2022-09-14T07:50:09.272Z,0.55
2022-09-14T07:52:38.683Z,0.70
2022-09-14T07:55:07.143Z,0.73
2022-09-14T07:57:55.187Z,0.80
2022-09-14T08:00:24.059Z,0.60
2022-09-14T08:02:55.289Z,0.68
2022-09-14T08:05:23.114Z,1.30
2022-09-14T08:07:54.478Z,0.85
2022-09-14T08:10:27.756Z,1.00
2022-09-14T08:12:57.607Z,0.60
2022-09-14T08:15:28.445Z,0.77
2022-09-14T08:17:55.788Z,0.50
2022-09-14T08:20:23.505Z,0.70
2022-09-14T08:22:50.529Z,0.60
2022-09-14T08:25:22.941Z,0.80
2022-09-14T08:27:49.956Z,0.80
2022-09-14T08:30:17.075Z,1.23
2022-09-14T08:32:45.634Z,0.52
2022-09-14T08:35:15.915Z,0.93
2022-09-14T08:37:42.945Z,0.93
2022-09-14T08:40:11.834Z,0.98
2022-09-14T08:42:41.742Z,0.88
2022-09-14T08:45:11.908Z,1.10
2022-09-14T08:47:39.975Z,1.48
2022-09-14T08:50:20.542Z,0.80
2022-09-14T08:52:48.734Z,1.02
2022-09-14T08:55:15.739Z,0.80
2022-09-14T08:57:57.201Z,1.80
2022-09-14T09:00:26.209Z,0.87
2022-09-14T09:02:53.221Z,0.80
2022-09-14T09:05:26.586Z,0.82
2022-09-14T09:08:01.135Z,0.75
2022-09-14T09:10:28.496Z,1.00
2022-09-14T09:12:58.003Z,0.77
2022-09-14T09:15:41.178Z,0.60
2022-09-14T09:18:14.041Z,0.77
2022-09-14T09:20:47.251Z,1.00
2022-09-14T09:23:25.689Z,0.80
2022-09-14T09:26:04.300Z,0.80
2022-09-14T09:28:31.639Z,0.93
2022-09-14T09:31:02.317Z,0.90
2022-09-14T09:33:30.242Z,0.70
2022-09-14T09:35:58.449Z,0.85
2022-09-14T09:38:27.147Z,0.70
2022-09-14T09:40:54.167Z,0.90
2022-09-14T09:43:45.306Z,1.00
2022-09-14T09:46:12.758Z,1.00
2022-09-14T09:48:44.229Z,0.90
2022-09-14T09:51:31.412Z,0.85
2022-09-14T09:54:03.947Z,0.70
2022-09-14T09:56:37.372Z,1.00
2022-09-14T09:59:22.578Z,0.93
2022-09-14T10:01:50.667Z,0.95
2022-09-14T10:04:20.059Z,0.95
2022-09-14T10:06:54.561Z,0.98
2022-09-14T10:09:28.223Z,0.90
2022-09-14T10:12:04.101Z,0.95
2022-09-14T10:14:33.797Z,0.80
2022-09-14T10:17:07.772Z,0.80
2022-09-14T10:19:35.966Z,1.00
2022-09-14T10:22:06.445Z,0.90
2022-09-14T10:24:35.984Z,0.70
2022-09-14T10:27:02.708Z,0.80
2022-09-14T10:29:43.084Z,0.98
2022-09-14T10:32:23.528Z,0.95
2022-09-14T10:34:51.431Z,0.80
2022-09-14T10:37:42.169Z,0.63
2022-09-14T10:40:19.852Z,1.00
2022-09-14T10:43:02.968Z,0.90
2022-09-14T10:45:38.850Z,0.93
2022-09-14T10:48:16.670Z,0.80
2022-09-14T10:51:11.393Z,0.60
2022-09-14T10:54:12.624Z,0.82
2022-09-14T10:57:13.077Z,0.90
2022-09-14T10:59:51.412Z,0.60
2022-09-14T11:02:26.684Z,0.80
2022-09-14T11:05:10.700Z,0.70
2022-09-14T11:07:55.348Z,0.85
2022-09-14T11:10:27.847Z,0.80
2022-09-14T11:13:09.464Z,0.75
2022-09-14T11:15:44.769Z,0.65
2022-09-14T11:18:14.281Z,0.90
2022-09-14T11:21:06.025Z,0.60
2022-09-14T11:23:50.506Z,0.93
2022-09-14T11:26:33.486Z,1.08
2022-09-14T11:29:06.051Z,0.73
2022-09-14T11:31:37.816Z,0.80
2022-09-14T11:34:13.434Z,1.00
2022-09-14T11:36:52.695Z,0.73
2022-09-14T11:39:25.171Z,0.82
2022-09-14T11:42:01.496Z,1.00
2022-09-14T11:44:37.089Z,0.98
2022-09-14T11:47:08.658Z,1.10
2022-09-14T11:50:00.146Z,1.10
2022-09-14T11:52:32.891Z,0.82
2022-09-14T11:55:01.056Z,0.80
2022-09-14T11:57:33.475Z,0.90
2022-09-14T12:00:09.994Z,0.77
2022-09-14T12:02:36.871Z,0.70
2022-09-14T12:05:10.301Z,0.82
2022-09-14T12:07:39.941Z,0.82
2022-09-14T12:10:15.683Z,0.90
2022-09-14T12:12:51.190Z,0.68
2022-09-14T12:15:26.955Z,0.77
2022-09-14T12:18:05.742Z,0.63
2022-09-14T12:20:38.795Z,1.02
2022-09-14T12:23:24.127Z,0.70
2022-09-14T12:26:11.090Z,0.90
2022-09-14T12:28:37.846Z,0.90
2022-09-14T12:31:04.561Z,0.80
2022-09-14T12:33:34.005Z,1.00
2022-09-14T12:36:12.341Z,0.93
2022-09-14T12:39:02.273Z,0.90
2022-09-14T12:41:29.490Z,1.77
2022-09-14T12:43:56.306Z,1.10
2022-09-14T12:46:22.945Z,0.70
2022-09-14T12:48:58.661Z,1.25
2022-09-14T12:51:35.310Z,0.80
2022-09-14T12:54:08.125Z,0.90
2022-09-14T12:56:43.712Z,1.00
2022-09-14T12:59:21.578Z,1.00
2022-09-14T13:02:11.338Z,1.10
2022-09-14T13:04:39.508Z,1.25
2022-09-14T13:07:15.078Z,1.00
2022-09-14T13:09:51.661Z,1.10
2022-09-14T13:12:35.190Z,0.80
2022-09-14T13:15:08.276Z,0.73
2022-09-14T13:17:34.913Z,1.30
2022-09-14T13:20:05.424Z,1.75
2022-09-14T13:22:33.630Z,1.00
2022-09-14T13:25:03.915Z,0.98
2022-09-14T13:27:34.911Z,1.00
2022-09-14T13:30:11.382Z,1.35
2022-09-14T13:32:44.549Z,0.90
2022-09-14T13:35:27.127Z,1.05
2022-09-14T13:37:53.960Z,1.30
2022-09-14T13:40:30.914Z,1.00
2022-09-14T13:42:59.131Z,1.38
2022-09-14T13:45:25.959Z,1.33
2022-09-14T13:47:53.584Z,1.40
2022-09-14T13:50:23.915Z,1.10
2022-09-14T13:53:02.913Z,1.00
2022-09-14T13:55:33.707Z,2.10
2022-09-14T13:58:09.533Z,1.52
2022-09-14T14:01:02.146Z,1.38
2022-09-14T14:03:47.608Z,1.35
2022-09-14T14:06:34.846Z,1.20
2022-09-14T14:09:10.088Z,1.33
2022-09-14T14:11:45.606Z,1.33
2022-09-14T14:14:18.894Z,1.63
2022-09-14T14:17:13.479Z,1.20
2022-09-14T14:19:40.558Z,1.20
2022-09-14T14:22:18.996Z,1.60
2022-09-14T14:27:38.825Z,2.90
2022-09-14T14:30:13.788Z,1.17
2022-09-14T14:32:40.447Z,1.07
2022-09-14T14:35:25.830Z,1.20
2022-09-14T14:37:52.657Z,1.48
2022-09-14T14:40:20.128Z,1.40
2022-09-14T14:42:48.951Z,1.33
2022-09-14T14:45:26.296Z,1.85
2022-09-14T14:47:56.879Z,1.35
2022-09-14T14:50:33.902Z,2.70
2022-09-14T14:53:02.125Z,1.65
2022-09-14T14:55:32.159Z,2.08
2022-09-14T14:58:04.744Z,1.98
2022-09-14T15:00:34.972Z,0.75
2022-09-14T15:03:04.672Z,0.90
2022-09-14T15:05:31.514Z,0.52
2022-09-14T15:07:58.668Z,0.70
2022-09-14T15:10:27.297Z,0.50
2022-09-14T15:12:54.820Z,0.73
2022-09-14T15:15:24.009Z,0.75
2022-09-14T15:17:54.164Z,3.15
2022-09-14T15:20:24.193Z,5.82
2022-09-14T15:22:50.886Z,3.83
2022-09-14T15:25:19.305Z,0.98
2022-09-14T15:27:46.356Z,0.65
2022-09-14T15:30:13.900Z,0.55
2022-09-14T15:32:40.996Z,1.08
2022-09-14T15:35:10.665Z,0.90
2022-09-14T15:37:37.391Z,0.60
2022-09-14T15:40:05.436Z,0.80
2022-09-14T15:42:32.149Z,0.50
2022-09-14T15:44:58.746Z,2.10
2022-09-14T15:47:27.452Z,0.88
2022-09-14T15:49:56.368Z,1.13
2022-09-14T15:52:23.017Z,0.82
2022-09-14T15:54:49.675Z,0.43
2022-09-14T15:57:16.266Z,0.50
2022-09-14T15:59:42.928Z,0.80
2022-09-14T16:02:12.397Z,1.00
2022-09-14T16:04:39.427Z,0.50
2022-09-14T16:07:09.764Z,0.40
2022-09-14T16:09:41.234Z,1.08
2022-09-14T16:12:10.701Z,0.30
2022-09-14T16:14:37.416Z,0.45
2022-09-14T16:17:05.061Z,0.30
2022-09-14T16:19:31.777Z,0.20
2022-09-14T16:21:58.397Z,0.30
2022-09-14T16:24:30.804Z,0.20
2022-09-14T16:26:57.884Z,0.30
2022-09-14T16:29:25.076Z,0.30
2022-09-14T16:31:52.681Z,0.40
2022-09-14T16:34:29.857Z,0.30
2022-09-14T16:36:58.550Z,0.30
2022-09-14T16:39:29.317Z,0.20
2022-09-14T16:41:56.085Z,0.30
2022-09-14T16:44:25.528Z,0.20
2022-09-14T16:46:54.014Z,0.30
2022-09-14T16:49:25.020Z,0.53
2022-09-14T16:51:56.540Z,0.30
2022-09-14T16:54:25.349Z,0.40
2022-09-14T16:56:55.965Z,1.30
2022-09-14T16:59:23.067Z,0.40
2022-09-14T17:01:54.272Z,1.60
2022-09-14T17:04:22.758Z,0.17
2022-09-14T17:06:51.443Z,0.65
2022-09-14T17:09:20.781Z,0.30
2022-09-14T17:11:48.744Z,0.30
2022-09-14T17:14:21.250Z,0.25
2022-09-14T17:16:48.669Z,0.20
2022-09-14T17:19:16.051Z,0.40
2022-09-14T17:21:44.432Z,0.40
2022-09-14T17:24:12.373Z,0.20
2022-09-14T17:26:39.118Z,0.20
2022-09-14T17:29:06.892Z,0.20
2022-09-14T17:31:37.113Z,0.30
2022-09-14T17:34:05.878Z,0.20
2022-09-14T17:36:32.745Z,0.28
2022-09-14T17:39:02.330Z,0.20
2022-09-14T17:41:31.600Z,0.20
2022-09-14T17:44:01.282Z,0.17
2022-09-14T17:46:28.726Z,0.13
2022-09-14T17:48:58.812Z,0.13
2022-09-14T17:51:27.655Z,0.20
2022-09-14T17:53:55.903Z,0.28
2022-09-14T17:56:25.330Z,0.10
2022-09-14T17:59:00.113Z,0.10
2022-09-14T18:01:26.810Z,0.10
2022-09-14T18:03:56.760Z,0.20
2022-09-14T18:06:26.407Z,0.30
2022-09-14T18:08:55.442Z,0.10
2022-09-14T18:11:22.951Z,0.20
2022-09-14T18:13:50.610Z,0.10
2022-09-14T18:16:19.402Z,0.80
2022-09-14T18:18:46.408Z,0.10
2022-09-14T18:21:18.471Z,0.10
2022-09-14T18:23:49.662Z,0.20
2022-09-14T18:26:19.920Z,0.40
2022-09-14T18:28:47.830Z,0.63
2022-09-14T18:31:15.896Z,0.20
2022-09-14T18:33:50.543Z,0.20
2022-09-14T18:36:17.906Z,0.20
2022-09-14T18:38:48.555Z,0.30
2022-09-14T18:41:16.527Z,0.30
2022-09-14T18:43:45.669Z,0.90
2022-09-14T18:46:13.272Z,0.10
2022-09-14T18:48:43.439Z,0.20
2022-09-14T18:51:11.044Z,0.10
2022-09-14T18:53:38.115Z,0.20
2022-09-14T18:56:07.284Z,0.17
2022-09-14T18:58:41.360Z,0.15
2022-09-14T19:01:09.105Z,0.20
2022-09-14T19:03:37.016Z,0.15
2022-09-14T19:06:08.801Z,0.20
2022-09-14T19:08:39.486Z,0.30
2022-09-14T19:11:10.978Z,0.17
2022-09-14T19:13:38.441Z,0.30
2022-09-14T19:16:08.569Z,0.20
2022-09-14T19:18:35.782Z,0.50
2022-09-14T19:21:09.777Z,0.10
2022-09-14T19:23:37.557Z,0.30
2022-09-14T19:26:08.659Z,0.10
2022-09-14T19:28:36.540Z,0.20
2022-09-14T19:31:10.815Z,0.30
2022-09-14T19:33:41.973Z,0.13
2022-09-14T19:36:21.693Z,0.13
2022-09-14T19:38:49.642Z,0.20
2022-09-14T19:41:17.404Z,0.20
2022-09-14T19:43:44.656Z,0.13
2022-09-14T19:46:13.334Z,0.15
2022-09-14T19:48:41.098Z,0.20
2022-09-14T19:51:10.932Z,0.63
2022-09-14T19:53:40.499Z,0.28
2022-09-14T19:56:16.204Z,0.15
2022-09-14T19:58:44.777Z,0.30
2022-09-14T20:01:19.397Z,0.60
2022-09-14T20:03:48.939Z,0.20
2022-09-14T20:06:28.214Z,0.00
2022-09-14T20:09:03.277Z,0.10
2022-09-14T20:11:33.650Z,0.40
2022-09-14T20:14:04.447Z,0.10
2022-09-14T20:16:32.860Z,0.10
2022-09-14T20:19:02.622Z,0.20
2022-09-14T20:21:29.669Z,0.20
2022-09-14T20:24:15.090Z,0.17
2022-09-14T20:26:43.527Z,0.20
2022-09-14T20:29:11.053Z,0.15
2022-09-14T20:31:38.285Z,0.10
2022-09-14T20:34:05.619Z,0.30
2022-09-14T20:36:32.659Z,0.17
2022-09-14T20:39:00.208Z,0.10
2022-09-14T20:41:31.801Z,0.20
2022-09-14T20:43:58.842Z,0.20
2022-09-14T20:46:35.214Z,0.22
2022-09-14T20:49:06.247Z,0.10
2022-09-14T20:51:34.438Z,1.60
2022-09-14T20:54:01.731Z,0.20
2022-09-14T20:56:29.652Z,0.50
2022-09-14T20:58:57.916Z,0.25
2022-09-14T21:01:26.810Z,1.27
2022-09-14T21:03:54.343Z,0.20
2022-09-14T21:06:22.817Z,0.20
2022-09-14T21:08:50.131Z,0.20
2022-09-14T21:11:18.444Z,0.10
2022-09-14T21:13:46.124Z,0.30
2022-09-14T21:16:18.488Z,0.32
2022-09-14T21:18:46.320Z,0.33
2022-09-14T21:21:14.922Z,0.60
2022-09-14T21:23:45.051Z,0.20
2022-09-14T21:26:12.852Z,0.17
2022-09-14T21:28:40.816Z,0.22
2022-09-14T21:31:07.922Z,0.30
2022-09-14T21:33:35.918Z,0.20
2022-09-14T21:36:04.662Z,0.30
2022-09-14T21:38:32.060Z,0.20
2022-09-14T21:40:59.083Z,0.20
2022-09-14T21:43:26.653Z,0.20
2022-09-14T21:45:53.768Z,0.20
2022-09-14T21:48:28.364Z,0.15
2022-09-14T21:51:02.283Z,0.32
2022-09-14T21:53:29.349Z,0.22
2022-09-14T21:55:56.408Z,0.20
2022-09-14T21:58:23.495Z,0.10
2022-09-14T22:00:56.263Z,0.25
2022-09-14T22:03:23.959Z,0.20
2022-09-14T22:06:05.938Z,0.22
2022-09-14T22:08:34.029Z,0.30
2022-09-14T22:11:23.174Z,0.30
2022-09-14T22:13:54.709Z,0.85
2022-09-14T22:16:23.044Z,1.00
2022-09-14T22:18:54.873Z,0.50
2022-09-14T22:21:22.482Z,0.15
2022-09-14T22:23:53.660Z,0.20
2022-09-14T22:26:21.410Z,0.30
2022-09-14T22:28:53.600Z,0.28
2022-09-14T22:31:21.538Z,0.20
2022-09-14T22:33:51.847Z,0.60
2022-09-14T22:36:19.820Z,0.20
2022-09-14T22:38:46.877Z,0.22
2022-09-14T22:41:18.084Z,0.20
2022-09-14T22:43:45.582Z,0.20
2022-09-14T22:46:13.132Z,0.40
2022-09-14T22:48:48.359Z,0.28
2022-09-14T22:51:16.927Z,0.35
2022-09-14T22:53:43.995Z,0.30
2022-09-14T22:56:37.099Z,0.30
2022-09-14T22:59:05.488Z,0.20
2022-09-14T23:01:33.793Z,0.50
2022-09-14T23:04:02.536Z,1.40
2022-09-14T23:06:30.840Z,0.30
2022-09-14T23:08:58.336Z,0.20
2022-09-14T23:11:25.372Z,0.20
2022-09-14T23:13:53.361Z,0.53
2022-09-14T23:16:23.072Z,0.10
2022-09-14T23:18:54.332Z,0.20
2022-09-14T23:21:21.695Z,0.17
2022-09-14T23:23:58.885Z,0.30
2022-09-14T23:26:28.733Z,0.30
2022-09-14T23:28:59.649Z,0.20
2022-09-14T23:31:27.569Z,0.38
2022-09-14T23:33:55.521Z,0.30
2022-09-14T23:36:23.039Z,1.90
2022-09-14T23:38:50.176Z,0.30
2022-09-14T23:41:17.811Z,0.30
2022-09-14T23:43:44.832Z,0.50
2022-09-14T23:46:13.009Z,0.50
2022-09-14T23:48:42.150Z,0.70
2022-09-14T23:51:10.720Z,0.28
2022-09-14T23:53:38.355Z,0.20
2022-09-14T23:56:05.692Z,0.30
2022-09-14T23:58:35.984Z,0.22
